sensor_id;sensor_type;location;lat;lon;timestamp;temperature;humidity
13482;DHT22;6813;60.352;15.746;2023-03-05T00:01:22;0.10;82.70
13482;DHT22;6813;60.352;15.746;2023-03-05T00:03:49;0.20;82.50
13482;DHT22;6813;60.352;15.746;2023-03-05T00:06:17;0.30;83.40
13482;DHT22;6813;60.352;15.746;2023-03-05T00:08:43;0.20;82.30
13482;DHT22;6813;60.352;15.746;2023-03-05T00:11:11;0.20;83.80
13482;DHT22;6813;60.352;15.746;2023-03-05T00:13:37;0.20;82.30
13482;DHT22;6813;60.352;15.746;2023-03-05T00:16:05;0.20;81.30
13482;DHT22;6813;60.352;15.746;2023-03-05T00:18:32;0.20;82.00
13482;DHT22;6813;60.352;15.746;2023-03-05T00:20:58;0.40;83.00
13482;DHT22;6813;60.352;15.746;2023-03-05T00:23:24;0.30;81.40
13482;DHT22;6813;60.352;15.746;2023-03-05T00:25:50;0.20;81.30
13482;DHT22;6813;60.352;15.746;2023-03-05T00:28:15;0.20;81.30
13482;DHT22;6813;60.352;15.746;2023-03-05T00:30:41;0.10;82.50
13482;DHT22;6813;60.352;15.746;2023-03-05T00:33:07;0.00;82.30
13482;DHT22;6813;60.352;15.746;2023-03-05T00:35:42;0.00;83.00
13482;DHT22;6813;60.352;15.746;2023-03-05T00:38:08;0.10;83.00
13482;DHT22;6813;60.352;15.746;2023-03-05T00:40:39;0.00;82.40
13482;DHT22;6813;60.352;15.746;2023-03-05T00:43:06;0.10;83.10
13482;DHT22;6813;60.352;15.746;2023-03-05T00:45:32;0.10;84.50
13482;DHT22;6813;60.352;15.746;2023-03-05T00:47:58;0.10;82.90
13482;DHT22;6813;60.352;15.746;2023-03-05T00:50:24;0.00;82.30
13482;DHT22;6813;60.352;15.746;2023-03-05T00:52:50;0.10;82.80
13482;DHT22;6813;60.352;15.746;2023-03-05T00:55:15;0.00;82.60
13482;DHT22;6813;60.352;15.746;2023-03-05T00:57:41;0.00;83.00
13482;DHT22;6813;60.352;15.746;2023-03-05T01:00:07;-0.10;83.10
13482;DHT22;6813;60.352;15.746;2023-03-05T01:02:33;0.00;82.60
13482;DHT22;6813;60.352;15.746;2023-03-05T01:04:59;0.00;83.00
13482;DHT22;6813;60.352;15.746;2023-03-05T01:07:25;-0.10;82.50
13482;DHT22;6813;60.352;15.746;2023-03-05T01:09:50;-0.40;82.60
13482;DHT22;6813;60.352;15.746;2023-03-05T01:12:16;-0.20;85.10
13482;DHT22;6813;60.352;15.746;2023-03-05T01:14:42;-0.10;85.00
13482;DHT22;6813;60.352;15.746;2023-03-05T01:17:07;-0.20;83.90
13482;DHT22;6813;60.352;15.746;2023-03-05T01:19:33;-0.10;85.00
13482;DHT22;6813;60.352;15.746;2023-03-05T01:21:59;-0.10;83.90
13482;DHT22;6813;60.352;15.746;2023-03-05T01:24:25;-0.10;84.40
13482;DHT22;6813;60.352;15.746;2023-03-05T01:26:51;0.00;84.10
13482;DHT22;6813;60.352;15.746;2023-03-05T01:29:16;0.10;85.20
13482;DHT22;6813;60.352;15.746;2023-03-05T01:31:42;0.10;83.50
13482;DHT22;6813;60.352;15.746;2023-03-05T01:34:08;0.00;83.60
13482;DHT22;6813;60.352;15.746;2023-03-05T01:36:34;-0.10;83.00
13482;DHT22;6813;60.352;15.746;2023-03-05T01:38:59;-0.10;83.30
13482;DHT22;6813;60.352;15.746;2023-03-05T01:41:25;0.00;84.10
13482;DHT22;6813;60.352;15.746;2023-03-05T01:43:51;0.10;84.00
13482;DHT22;6813;60.352;15.746;2023-03-05T01:46:25;0.00;82.50
13482;DHT22;6813;60.352;15.746;2023-03-05T01:49:02;0.00;83.50
13482;DHT22;6813;60.352;15.746;2023-03-05T01:51:32;0.00;83.20
13482;DHT22;6813;60.352;15.746;2023-03-05T01:54:01;0.00;83.70
13482;DHT22;6813;60.352;15.746;2023-03-05T01:56:28;0.00;82.70
13482;DHT22;6813;60.352;15.746;2023-03-05T01:58:56;0.10;83.10
13482;DHT22;6813;60.352;15.746;2023-03-05T02:01:33;0.00;83.00
13482;DHT22;6813;60.352;15.746;2023-03-05T02:04:01;-0.10;82.20
13482;DHT22;6813;60.352;15.746;2023-03-05T02:06:27;-0.30;82.70
13482;DHT22;6813;60.352;15.746;2023-03-05T02:08:53;-0.20;83.90
13482;DHT22;6813;60.352;15.746;2023-03-05T02:11:19;-0.10;83.50
13482;DHT22;6813;60.352;15.746;2023-03-05T02:13:45;-0.10;82.40
13482;DHT22;6813;60.352;15.746;2023-03-05T02:16:11;-0.20;82.00
13482;DHT22;6813;60.352;15.746;2023-03-05T02:18:37;-0.20;82.50
13482;DHT22;6813;60.352;15.746;2023-03-05T02:21:11;-0.20;82.80
13482;DHT22;6813;60.352;15.746;2023-03-05T02:23:37;-0.20;81.90
13482;DHT22;6813;60.352;15.746;2023-03-05T02:26:06;-0.10;82.20
13482;DHT22;6813;60.352;15.746;2023-03-05T02:28:43;-0.20;82.50
13482;DHT22;6813;60.352;15.746;2023-03-05T02:31:13;-0.20;82.90
13482;DHT22;6813;60.352;15.746;2023-03-05T02:33:39;-0.10;83.00
13482;DHT22;6813;60.352;15.746;2023-03-05T02:36:06;-0.20;82.30
13482;DHT22;6813;60.352;15.746;2023-03-05T02:38:32;-0.20;82.90
13482;DHT22;6813;60.352;15.746;2023-03-05T02:40:58;-0.20;82.00
13482;DHT22;6813;60.352;15.746;2023-03-05T02:43:23;-0.30;82.30
13482;DHT22;6813;60.352;15.746;2023-03-05T02:45:49;-0.30;82.70
13482;DHT22;6813;60.352;15.746;2023-03-05T02:48:15;-0.40;82.30
13482;DHT22;6813;60.352;15.746;2023-03-05T02:50:41;-0.40;83.00
13482;DHT22;6813;60.352;15.746;2023-03-05T02:53:07;-0.50;83.40
13482;DHT22;6813;60.352;15.746;2023-03-05T02:55:33;-0.50;82.90
13482;DHT22;6813;60.352;15.746;2023-03-05T02:57:59;-0.50;83.00
13482;DHT22;6813;60.352;15.746;2023-03-05T03:00:25;-0.50;82.90
13482;DHT22;6813;60.352;15.746;2023-03-05T03:02:51;-0.60;83.00
13482;DHT22;6813;60.352;15.746;2023-03-05T03:05:17;-0.60;83.10
13482;DHT22;6813;60.352;15.746;2023-03-05T03:07:43;-0.50;83.40
13482;DHT22;6813;60.352;15.746;2023-03-05T03:10:10;-0.50;83.50
13482;DHT22;6813;60.352;15.746;2023-03-05T03:12:41;-0.40;83.70
13482;DHT22;6813;60.352;15.746;2023-03-05T03:15:08;-0.40;83.30
13482;DHT22;6813;60.352;15.746;2023-03-05T03:17:35;-0.30;82.70
13482;DHT22;6813;60.352;15.746;2023-03-05T03:20:03;-0.30;82.30
13482;DHT22;6813;60.352;15.746;2023-03-05T03:22:29;-0.40;82.20
13482;DHT22;6813;60.352;15.746;2023-03-05T03:24:54;-0.40;83.30
13482;DHT22;6813;60.352;15.746;2023-03-05T03:27:21;-0.40;83.40
13482;DHT22;6813;60.352;15.746;2023-03-05T03:29:47;-0.40;83.10
13482;DHT22;6813;60.352;15.746;2023-03-05T03:32:12;-0.40;82.60
13482;DHT22;6813;60.352;15.746;2023-03-05T03:34:38;-0.40;83.00
13482;DHT22;6813;60.352;15.746;2023-03-05T03:37:04;-0.50;82.50
13482;DHT22;6813;60.352;15.746;2023-03-05T03:39:29;-0.50;83.00
13482;DHT22;6813;60.352;15.746;2023-03-05T03:41:55;-0.60;82.70
13482;DHT22;6813;60.352;15.746;2023-03-05T03:44:22;-0.60;83.40
13482;DHT22;6813;60.352;15.746;2023-03-05T03:46:49;-0.80;83.20
13482;DHT22;6813;60.352;15.746;2023-03-05T03:49:23;-0.80;84.00
13482;DHT22;6813;60.352;15.746;2023-03-05T03:51:50;-0.80;85.00
13482;DHT22;6813;60.352;15.746;2023-03-05T03:54:17;-0.60;84.50
13482;DHT22;6813;60.352;15.746;2023-03-05T03:56:43;-0.60;83.90
13482;DHT22;6813;60.352;15.746;2023-03-05T03:59:10;-0.40;85.40
13482;DHT22;6813;60.352;15.746;2023-03-05T04:01:36;-0.50;83.60
13482;DHT22;6813;60.352;15.746;2023-03-05T04:04:03;-0.60;84.00
13482;DHT22;6813;60.352;15.746;2023-03-05T04:06:29;-0.60;84.60
13482;DHT22;6813;60.352;15.746;2023-03-05T04:08:55;-0.60;84.30
13482;DHT22;6813;60.352;15.746;2023-03-05T04:11:21;-0.60;84.40
13482;DHT22;6813;60.352;15.746;2023-03-05T04:13:47;-0.70;83.30
13482;DHT22;6813;60.352;15.746;2023-03-05T04:16:14;-0.60;83.60
13482;DHT22;6813;60.352;15.746;2023-03-05T04:18:40;-0.70;84.20
13482;DHT22;6813;60.352;15.746;2023-03-05T04:21:06;-0.60;85.50
13482;DHT22;6813;60.352;15.746;2023-03-05T04:23:32;-0.50;85.90
13482;DHT22;6813;60.352;15.746;2023-03-05T04:25:58;-0.50;85.80
13482;DHT22;6813;60.352;15.746;2023-03-05T04:28:24;-0.50;84.70
13482;DHT22;6813;60.352;15.746;2023-03-05T04:30:49;-0.50;85.70
13482;DHT22;6813;60.352;15.746;2023-03-05T04:33:15;-0.40;86.10
13482;DHT22;6813;60.352;15.746;2023-03-05T04:35:41;-0.40;85.40
13482;DHT22;6813;60.352;15.746;2023-03-05T04:38:07;-0.40;84.60
13482;DHT22;6813;60.352;15.746;2023-03-05T04:40:33;-0.40;84.30
13482;DHT22;6813;60.352;15.746;2023-03-05T04:42:59;-0.30;84.80
13482;DHT22;6813;60.352;15.746;2023-03-05T04:45:25;-0.30;85.60
13482;DHT22;6813;60.352;15.746;2023-03-05T04:47:51;-0.20;84.80
13482;DHT22;6813;60.352;15.746;2023-03-05T04:50:17;-0.20;83.80
13482;DHT22;6813;60.352;15.746;2023-03-05T04:52:43;-0.20;85.20
13482;DHT22;6813;60.352;15.746;2023-03-05T04:55:11;-0.20;83.40
13482;DHT22;6813;60.352;15.746;2023-03-05T04:57:37;-0.30;82.60
13482;DHT22;6813;60.352;15.746;2023-03-05T05:00:05;-0.50;82.70
13482;DHT22;6813;60.352;15.746;2023-03-05T05:02:33;-0.60;83.60
13482;DHT22;6813;60.352;15.746;2023-03-05T05:04:58;-0.50;84.30
13482;DHT22;6813;60.352;15.746;2023-03-05T05:07:24;-0.50;83.70
13482;DHT22;6813;60.352;15.746;2023-03-05T05:09:50;-0.40;84.20
13482;DHT22;6813;60.352;15.746;2023-03-05T05:12:15;-0.30;85.90
13482;DHT22;6813;60.352;15.746;2023-03-05T05:14:41;-0.10;84.00
13482;DHT22;6813;60.352;15.746;2023-03-05T05:17:08;-0.20;83.10
13482;DHT22;6813;60.352;15.746;2023-03-05T05:19:34;-0.30;82.80
13482;DHT22;6813;60.352;15.746;2023-03-05T05:22:00;-0.20;84.10
13482;DHT22;6813;60.352;15.746;2023-03-05T05:24:26;-0.20;83.00
13482;DHT22;6813;60.352;15.746;2023-03-05T05:26:55;-0.30;83.00
13482;DHT22;6813;60.352;15.746;2023-03-05T05:29:22;-0.20;83.50
13482;DHT22;6813;60.352;15.746;2023-03-05T05:31:48;-0.20;83.20
13482;DHT22;6813;60.352;15.746;2023-03-05T05:34:14;-0.30;82.70
13482;DHT22;6813;60.352;15.746;2023-03-05T05:36:40;-0.30;83.10
13482;DHT22;6813;60.352;15.746;2023-03-05T05:39:05;-0.20;82.90
13482;DHT22;6813;60.352;15.746;2023-03-05T05:41:31;-0.10;82.90
13482;DHT22;6813;60.352;15.746;2023-03-05T05:43:57;-0.10;83.00
13482;DHT22;6813;60.352;15.746;2023-03-05T05:46:22;-0.10;82.60
13482;DHT22;6813;60.352;15.746;2023-03-05T05:48:49;0.00;82.60
13482;DHT22;6813;60.352;15.746;2023-03-05T05:51:17;0.00;82.30
13482;DHT22;6813;60.352;15.746;2023-03-05T05:53:45;-0.10;82.10
13482;DHT22;6813;60.352;15.746;2023-03-05T05:56:12;0.00;83.10
13482;DHT22;6813;60.352;15.746;2023-03-05T05:58:39;0.00;81.70
13482;DHT22;6813;60.352;15.746;2023-03-05T06:01:16;0.10;83.50
13482;DHT22;6813;60.352;15.746;2023-03-05T06:03:43;0.30;83.10
13482;DHT22;6813;60.352;15.746;2023-03-05T06:06:14;0.30;81.60
13482;DHT22;6813;60.352;15.746;2023-03-05T06:08:40;0.10;81.20
13482;DHT22;6813;60.352;15.746;2023-03-05T06:11:06;-0.10;80.80
13482;DHT22;6813;60.352;15.746;2023-03-05T06:13:32;-0.10;82.20
13482;DHT22;6813;60.352;15.746;2023-03-05T06:16:02;-0.10;83.00
13482;DHT22;6813;60.352;15.746;2023-03-05T06:18:28;-0.10;84.20
13482;DHT22;6813;60.352;15.746;2023-03-05T06:20:59;-0.10;83.00
13482;DHT22;6813;60.352;15.746;2023-03-05T06:23:26;0.00;81.80
13482;DHT22;6813;60.352;15.746;2023-03-05T06:25:53;0.00;83.20
13482;DHT22;6813;60.352;15.746;2023-03-05T06:28:19;0.00;81.40
13482;DHT22;6813;60.352;15.746;2023-03-05T06:30:45;-0.10;82.00
13482;DHT22;6813;60.352;15.746;2023-03-05T06:33:11;0.00;81.60
13482;DHT22;6813;60.352;15.746;2023-03-05T06:35:40;-0.10;81.60
13482;DHT22;6813;60.352;15.746;2023-03-05T06:38:06;0.10;82.50
13482;DHT22;6813;60.352;15.746;2023-03-05T06:40:33;0.10;81.90
13482;DHT22;6813;60.352;15.746;2023-03-05T06:42:59;-0.10;80.40
13482;DHT22;6813;60.352;15.746;2023-03-05T06:45:25;-0.10;81.80
13482;DHT22;6813;60.352;15.746;2023-03-05T06:47:51;-0.10;81.40
13482;DHT22;6813;60.352;15.746;2023-03-05T06:50:16;-0.10;83.00
13482;DHT22;6813;60.352;15.746;2023-03-05T06:52:42;0.10;82.40
13482;DHT22;6813;60.352;15.746;2023-03-05T06:55:08;0.10;81.90
13482;DHT22;6813;60.352;15.746;2023-03-05T06:57:35;0.20;81.20
13482;DHT22;6813;60.352;15.746;2023-03-05T07:00:03;0.30;81.40
13482;DHT22;6813;60.352;15.746;2023-03-05T07:02:32;0.20;80.30
13482;DHT22;6813;60.352;15.746;2023-03-05T07:04:58;0.20;80.00
13482;DHT22;6813;60.352;15.746;2023-03-05T07:07:23;0.10;80.40
13482;DHT22;6813;60.352;15.746;2023-03-05T07:09:49;0.10;81.00
13482;DHT22;6813;60.352;15.746;2023-03-05T07:12:17;0.10;80.00
13482;DHT22;6813;60.352;15.746;2023-03-05T07:14:43;0.10;81.20
13482;DHT22;6813;60.352;15.746;2023-03-05T07:17:08;0.10;80.50
13482;DHT22;6813;60.352;15.746;2023-03-05T07:19:34;0.20;81.50
13482;DHT22;6813;60.352;15.746;2023-03-05T07:22:00;0.30;80.40
13482;DHT22;6813;60.352;15.746;2023-03-05T07:24:26;0.30;79.90
13482;DHT22;6813;60.352;15.746;2023-03-05T07:26:55;0.40;81.50
13482;DHT22;6813;60.352;15.746;2023-03-05T07:29:22;0.40;80.20
13482;DHT22;6813;60.352;15.746;2023-03-05T07:31:48;0.40;79.60
13482;DHT22;6813;60.352;15.746;2023-03-05T07:34:14;0.40;81.30
13482;DHT22;6813;60.352;15.746;2023-03-05T07:36:40;0.50;79.90
13482;DHT22;6813;60.352;15.746;2023-03-05T07:39:07;0.40;79.20
13482;DHT22;6813;60.352;15.746;2023-03-05T07:41:32;0.50;81.00
13482;DHT22;6813;60.352;15.746;2023-03-05T07:43:58;0.50;80.80
13482;DHT22;6813;60.352;15.746;2023-03-05T07:46:27;0.60;80.20
13482;DHT22;6813;60.352;15.746;2023-03-05T07:48:53;0.50;78.50
13482;DHT22;6813;60.352;15.746;2023-03-05T07:51:20;0.50;80.10
13482;DHT22;6813;60.352;15.746;2023-03-05T07:53:47;0.60;80.10
13482;DHT22;6813;60.352;15.746;2023-03-05T07:56:19;0.40;77.70
13482;DHT22;6813;60.352;15.746;2023-03-05T07:58:47;0.40;79.70
13482;DHT22;6813;60.352;15.746;2023-03-05T08:01:12;0.50;80.80
13482;DHT22;6813;60.352;15.746;2023-03-05T08:03:40;0.60;80.00
13482;DHT22;6813;60.352;15.746;2023-03-05T08:06:07;0.70;79.50
13482;DHT22;6813;60.352;15.746;2023-03-05T08:08:32;0.70;79.00
13482;DHT22;6813;60.352;15.746;2023-03-05T08:11:06;0.60;78.10
13482;DHT22;6813;60.352;15.746;2023-03-05T08:13:32;0.70;78.70
13482;DHT22;6813;60.352;15.746;2023-03-05T08:15:58;0.70;79.30
13482;DHT22;6813;60.352;15.746;2023-03-05T08:18:23;0.70;79.10
13482;DHT22;6813;60.352;15.746;2023-03-05T08:20:49;0.70;78.70
13482;DHT22;6813;60.352;15.746;2023-03-05T08:23:15;0.70;80.70
13482;DHT22;6813;60.352;15.746;2023-03-05T08:25:40;0.80;80.60
13482;DHT22;6813;60.352;15.746;2023-03-05T08:28:06;0.90;80.70
13482;DHT22;6813;60.352;15.746;2023-03-05T08:30:32;1.00;80.10
13482;DHT22;6813;60.352;15.746;2023-03-05T08:32:58;0.80;79.20
13482;DHT22;6813;60.352;15.746;2023-03-05T08:35:23;0.80;79.40
13482;DHT22;6813;60.352;15.746;2023-03-05T08:37:49;0.90;80.80
13482;DHT22;6813;60.352;15.746;2023-03-05T08:40:15;1.00;81.70
13482;DHT22;6813;60.352;15.746;2023-03-05T08:42:44;1.20;81.00
13482;DHT22;6813;60.352;15.746;2023-03-05T08:45:10;0.90;77.60
13482;DHT22;6813;60.352;15.746;2023-03-05T08:47:36;0.90;79.70
13482;DHT22;6813;60.352;15.746;2023-03-05T08:50:02;1.10;79.40
13482;DHT22;6813;60.352;15.746;2023-03-05T08:52:28;1.50;80.30
13482;DHT22;6813;60.352;15.746;2023-03-05T08:54:54;1.60;80.40
13482;DHT22;6813;60.352;15.746;2023-03-05T08:57:19;2.00;78.90
13482;DHT22;6813;60.352;15.746;2023-03-05T08:59:45;2.30;76.70
13482;DHT22;6813;60.352;15.746;2023-03-05T09:02:12;2.60;76.30
13482;DHT22;6813;60.352;15.746;2023-03-05T09:04:38;2.90;78.60
13482;DHT22;6813;60.352;15.746;2023-03-05T09:07:04;3.20;77.80
13482;DHT22;6813;60.352;15.746;2023-03-05T09:09:30;3.40;76.40
13482;DHT22;6813;60.352;15.746;2023-03-05T09:11:58;3.50;74.10
13482;DHT22;6813;60.352;15.746;2023-03-05T09:14:24;3.70;75.60
13482;DHT22;6813;60.352;15.746;2023-03-05T09:16:52;3.90;73.90
13482;DHT22;6813;60.352;15.746;2023-03-05T09:19:18;4.10;73.00
13482;DHT22;6813;60.352;15.746;2023-03-05T09:21:44;4.20;73.00
13482;DHT22;6813;60.352;15.746;2023-03-05T09:24:10;4.20;72.10
13482;DHT22;6813;60.352;15.746;2023-03-05T09:26:36;4.20;71.90
13482;DHT22;6813;60.352;15.746;2023-03-05T09:29:02;3.90;71.80
13482;DHT22;6813;60.352;15.746;2023-03-05T09:31:28;3.90;72.60
13482;DHT22;6813;60.352;15.746;2023-03-05T09:33:54;3.90;69.60
13482;DHT22;6813;60.352;15.746;2023-03-05T09:36:25;4.00;71.70
13482;DHT22;6813;60.352;15.746;2023-03-05T09:38:52;4.20;70.00
13482;DHT22;6813;60.352;15.746;2023-03-05T09:46:51;4.10;70.00
13482;DHT22;6813;60.352;15.746;2023-03-05T09:57:52;3.60;69.30
13482;DHT22;6813;60.352;15.746;2023-03-05T10:00:40;3.70;68.80
13482;DHT22;6813;60.352;15.746;2023-03-05T10:03:29;3.60;68.00
13482;DHT22;6813;60.352;15.746;2023-03-05T10:08:57;3.70;68.10
13482;DHT22;6813;60.352;15.746;2023-03-05T10:11:41;3.70;68.30
13482;DHT22;6813;60.352;15.746;2023-03-05T10:14:14;3.70;66.70
13482;DHT22;6813;60.352;15.746;2023-03-05T10:16:52;3.70;68.40
13482;DHT22;6813;60.352;15.746;2023-03-05T10:22:22;3.40;67.10
13482;DHT22;6813;60.352;15.746;2023-03-05T10:25:25;3.20;69.40
13482;DHT22;6813;60.352;15.746;2023-03-05T10:27:59;3.10;69.90
13482;DHT22;6813;60.352;15.746;2023-03-05T10:41:37;2.70;76.10
13482;DHT22;6813;60.352;15.746;2023-03-05T10:44:15;2.70;77.40
13482;DHT22;6813;60.352;15.746;2023-03-05T10:46:43;2.70;77.50
13482;DHT22;6813;60.352;15.746;2023-03-05T10:49:25;2.70;77.70
13482;DHT22;6813;60.352;15.746;2023-03-05T10:52:06;2.60;77.60
13482;DHT22;6813;60.352;15.746;2023-03-05T10:54:34;2.70;78.40
13482;DHT22;6813;60.352;15.746;2023-03-05T10:57:18;2.70;77.90
13482;DHT22;6813;60.352;15.746;2023-03-05T10:59:52;2.80;77.60
13482;DHT22;6813;60.352;15.746;2023-03-05T11:02:20;2.80;77.40
13482;DHT22;6813;60.352;15.746;2023-03-05T11:04:47;3.10;85.00
13482;DHT22;6813;60.352;15.746;2023-03-05T11:10:00;3.00;77.00
13482;DHT22;6813;60.352;15.746;2023-03-05T11:12:32;2.80;77.60
13482;DHT22;6813;60.352;15.746;2023-03-05T11:17:35;2.40;78.50
13482;DHT22;6813;60.352;15.746;2023-03-05T11:28:23;2.50;78.80
13482;DHT22;6813;60.352;15.746;2023-03-05T11:31:02;2.40;81.40
13482;DHT22;6813;60.352;15.746;2023-03-05T11:33:28;2.30;82.50
13482;DHT22;6813;60.352;15.746;2023-03-05T11:36:22;2.30;83.40
13482;DHT22;6813;60.352;15.746;2023-03-05T11:38:54;2.30;82.20
13482;DHT22;6813;60.352;15.746;2023-03-05T11:41:32;2.40;82.30
13482;DHT22;6813;60.352;15.746;2023-03-05T11:44:00;2.50;84.30
13482;DHT22;6813;60.352;15.746;2023-03-05T11:46:30;2.50;82.40
13482;DHT22;6813;60.352;15.746;2023-03-05T11:49:01;2.60;85.90
13482;DHT22;6813;60.352;15.746;2023-03-05T11:51:43;2.50;83.50
13482;DHT22;6813;60.352;15.746;2023-03-05T11:54:15;2.20;85.20
13482;DHT22;6813;60.352;15.746;2023-03-05T11:56:43;2.00;88.50
13482;DHT22;6813;60.352;15.746;2023-03-05T11:59:16;1.90;88.60
13482;DHT22;6813;60.352;15.746;2023-03-05T12:01:49;1.80;89.40
13482;DHT22;6813;60.352;15.746;2023-03-05T12:04:16;1.70;90.70
13482;DHT22;6813;60.352;15.746;2023-03-05T12:06:43;1.70;90.90
13482;DHT22;6813;60.352;15.746;2023-03-05T12:09:25;1.70;91.10
13482;DHT22;6813;60.352;15.746;2023-03-05T12:12:00;1.50;91.10
13482;DHT22;6813;60.352;15.746;2023-03-05T12:14:44;1.40;91.70
13482;DHT22;6813;60.352;15.746;2023-03-05T12:17:27;1.40;92.10
13482;DHT22;6813;60.352;15.746;2023-03-05T12:20:17;1.40;92.80
13482;DHT22;6813;60.352;15.746;2023-03-05T12:22:46;1.40;93.20
13482;DHT22;6813;60.352;15.746;2023-03-05T12:25:26;1.20;93.10
13482;DHT22;6813;60.352;15.746;2023-03-05T12:27:52;1.20;93.80
13482;DHT22;6813;60.352;15.746;2023-03-05T12:38:49;1.20;94.70
13482;DHT22;6813;60.352;15.746;2023-03-05T12:46:34;1.10;95.80
13482;DHT22;6813;60.352;15.746;2023-03-05T12:49:47;1.00;95.60
13482;DHT22;6813;60.352;15.746;2023-03-05T12:52:22;0.90;95.90
13482;DHT22;6813;60.352;15.746;2023-03-05T12:55:33;0.90;96.10
13482;DHT22;6813;60.352;15.746;2023-03-05T13:00:42;0.80;96.80
13482;DHT22;6813;60.352;15.746;2023-03-05T13:03:16;0.90;96.90
13482;DHT22;6813;60.352;15.746;2023-03-05T13:05:54;0.80;97.50
13482;DHT22;6813;60.352;15.746;2023-03-05T13:08:22;0.90;97.50
13482;DHT22;6813;60.352;15.746;2023-03-05T13:10:58;1.00;97.30
13482;DHT22;6813;60.352;15.746;2023-03-05T13:13:26;1.10;97.10
13482;DHT22;6813;60.352;15.746;2023-03-05T13:15:53;1.20;96.90
13482;DHT22;6813;60.352;15.746;2023-03-05T13:18:25;1.30;96.80
13482;DHT22;6813;60.352;15.746;2023-03-05T13:21:04;1.50;96.90
13482;DHT22;6813;60.352;15.746;2023-03-05T13:23:32;1.50;96.50
13482;DHT22;6813;60.352;15.746;2023-03-05T13:28:30;1.50;96.60
13482;DHT22;6813;60.352;15.746;2023-03-05T13:30:59;1.50;96.60
13482;DHT22;6813;60.352;15.746;2023-03-05T13:33:28;1.50;96.30
13482;DHT22;6813;60.352;15.746;2023-03-05T13:35:55;1.60;96.20
13482;DHT22;6813;60.352;15.746;2023-03-05T13:38:39;1.60;96.20
13482;DHT22;6813;60.352;15.746;2023-03-05T13:43:54;1.80;95.70
13482;DHT22;6813;60.352;15.746;2023-03-05T13:46:46;1.70;95.60
13482;DHT22;6813;60.352;15.746;2023-03-05T13:49:18;1.70;95.60
13482;DHT22;6813;60.352;15.746;2023-03-05T13:51:48;1.80;97.40
13482;DHT22;6813;60.352;15.746;2023-03-05T13:54:15;2.00;95.60
13482;DHT22;6813;60.352;15.746;2023-03-05T13:56:52;2.00;96.30
13482;DHT22;6813;60.352;15.746;2023-03-05T13:59:21;2.20;95.70
13482;DHT22;6813;60.352;15.746;2023-03-05T14:01:47;2.30;94.70
13482;DHT22;6813;60.352;15.746;2023-03-05T14:07:05;2.50;94.10
13482;DHT22;6813;60.352;15.746;2023-03-05T14:12:19;2.50;93.00
13482;DHT22;6813;60.352;15.746;2023-03-05T14:14:46;2.40;92.30
13482;DHT22;6813;60.352;15.746;2023-03-05T14:22:37;2.20;91.90
13482;DHT22;6813;60.352;15.746;2023-03-05T14:25:04;2.20;91.70
13482;DHT22;6813;60.352;15.746;2023-03-05T14:27:33;2.30;91.60
13482;DHT22;6813;60.352;15.746;2023-03-05T14:30:01;2.30;91.60
13482;DHT22;6813;60.352;15.746;2023-03-05T14:32:32;2.40;91.50
13482;DHT22;6813;60.352;15.746;2023-03-05T14:35:01;2.40;91.20
13482;DHT22;6813;60.352;15.746;2023-03-05T14:37:40;2.50;91.10
13482;DHT22;6813;60.352;15.746;2023-03-05T14:40:18;2.60;91.10
13482;DHT22;6813;60.352;15.746;2023-03-05T14:43:02;2.50;90.50
13482;DHT22;6813;60.352;15.746;2023-03-05T14:45:40;2.50;90.40
13482;DHT22;6813;60.352;15.746;2023-03-05T14:48:10;2.50;90.50
13482;DHT22;6813;60.352;15.746;2023-03-05T14:50:43;2.50;90.20
13482;DHT22;6813;60.352;15.746;2023-03-05T14:53:18;2.50;90.20
13482;DHT22;6813;60.352;15.746;2023-03-05T14:55:47;2.30;88.10
13482;DHT22;6813;60.352;15.746;2023-03-05T14:58:19;2.30;88.20
13482;DHT22;6813;60.352;15.746;2023-03-05T15:00:47;2.20;88.20
13482;DHT22;6813;60.352;15.746;2023-03-05T15:03:15;2.30;87.40
13482;DHT22;6813;60.352;15.746;2023-03-05T15:05:42;2.30;86.70
13482;DHT22;6813;60.352;15.746;2023-03-05T15:08:21;2.30;86.80
13482;DHT22;6813;60.352;15.746;2023-03-05T15:10:48;2.30;86.50
13482;DHT22;6813;60.352;15.746;2023-03-05T15:13:14;2.20;84.90
13482;DHT22;6813;60.352;15.746;2023-03-05T15:15:41;2.20;86.10
13482;DHT22;6813;60.352;15.746;2023-03-05T15:18:15;2.30;86.80
13482;DHT22;6813;60.352;15.746;2023-03-05T15:20:42;2.30;86.30
13482;DHT22;6813;60.352;15.746;2023-03-05T15:23:08;2.30;86.20
13482;DHT22;6813;60.352;15.746;2023-03-05T15:25:34;2.30;85.90
13482;DHT22;6813;60.352;15.746;2023-03-05T15:27:59;2.40;85.40
13482;DHT22;6813;60.352;15.746;2023-03-05T15:30:28;2.40;85.10
13482;DHT22;6813;60.352;15.746;2023-03-05T15:32:56;2.30;85.40
13482;DHT22;6813;60.352;15.746;2023-03-05T15:35:22;2.40;85.40
13482;DHT22;6813;60.352;15.746;2023-03-05T15:37:48;2.50;85.60
13482;DHT22;6813;60.352;15.746;2023-03-05T15:40:14;2.40;84.90
13482;DHT22;6813;60.352;15.746;2023-03-05T15:42:40;2.40;85.00
13482;DHT22;6813;60.352;15.746;2023-03-05T15:45:06;2.40;83.80
13482;DHT22;6813;60.352;15.746;2023-03-05T15:47:32;2.40;84.10
13482;DHT22;6813;60.352;15.746;2023-03-05T15:49:58;2.30;83.20
13482;DHT22;6813;60.352;15.746;2023-03-05T15:52:32;2.20;83.20
13482;DHT22;6813;60.352;15.746;2023-03-05T15:55:01;2.20;84.90
13482;DHT22;6813;60.352;15.746;2023-03-05T15:57:27;2.20;84.70
13482;DHT22;6813;60.352;15.746;2023-03-05T15:59:53;2.30;83.90
13482;DHT22;6813;60.352;15.746;2023-03-05T16:02:19;2.30;84.00
13482;DHT22;6813;60.352;15.746;2023-03-05T16:04:45;2.20;81.50
13482;DHT22;6813;60.352;15.746;2023-03-05T16:07:12;2.30;84.30
13482;DHT22;6813;60.352;15.746;2023-03-05T16:09:43;2.30;84.60
13482;DHT22;6813;60.352;15.746;2023-03-05T16:12:15;2.30;82.80
13482;DHT22;6813;60.352;15.746;2023-03-05T16:14:42;2.30;84.70
13482;DHT22;6813;60.352;15.746;2023-03-05T16:17:08;2.60;90.20
13482;DHT22;6813;60.352;15.746;2023-03-05T16:19:37;2.50;82.50
13482;DHT22;6813;60.352;15.746;2023-03-05T16:22:04;2.30;83.40
13482;DHT22;6813;60.352;15.746;2023-03-05T16:24:30;2.10;81.50
13482;DHT22;6813;60.352;15.746;2023-03-05T16:26:57;2.10;83.10
13482;DHT22;6813;60.352;15.746;2023-03-05T16:29:23;2.00;82.60
13482;DHT22;6813;60.352;15.746;2023-03-05T16:31:49;1.90;82.40
13482;DHT22;6813;60.352;15.746;2023-03-05T16:34:15;1.90;82.10
13482;DHT22;6813;60.352;15.746;2023-03-05T16:36:46;1.80;81.30
13482;DHT22;6813;60.352;15.746;2023-03-05T16:39:12;1.80;82.00
13482;DHT22;6813;60.352;15.746;2023-03-05T16:41:38;1.70;80.20
13482;DHT22;6813;60.352;15.746;2023-03-05T16:44:04;1.70;80.70
13482;DHT22;6813;60.352;15.746;2023-03-05T16:46:30;1.70;81.50
13482;DHT22;6813;60.352;15.746;2023-03-05T16:48:57;1.60;81.40
13482;DHT22;6813;60.352;15.746;2023-03-05T16:51:23;1.60;81.50
13482;DHT22;6813;60.352;15.746;2023-03-05T16:53:49;1.50;81.40
13482;DHT22;6813;60.352;15.746;2023-03-05T16:56:15;1.30;80.00
13482;DHT22;6813;60.352;15.746;2023-03-05T16:58:41;1.30;80.20
13482;DHT22;6813;60.352;15.746;2023-03-05T17:01:09;1.20;81.90
13482;DHT22;6813;60.352;15.746;2023-03-05T17:03:35;1.00;80.90
13482;DHT22;6813;60.352;15.746;2023-03-05T17:06:08;1.10;83.10
13482;DHT22;6813;60.352;15.746;2023-03-05T17:08:34;1.10;82.30